sensor_id;sensor_type;location;lat;lon;timestamp;pressure;altitude;pressure_sealevel;temperature;humidity
12203;BME280;6164;42.178;24.622;2022-08-03T00:00:17;99449.06;;;23.43;60.30
12203;BME280;6164;42.178;24.622;2022-08-03T00:02:44;99457.34;;;23.37;60.32
12203;BME280;6164;42.178;24.622;2022-08-03T00:05:10;99458.13;;;23.32;60.55
12203;BME280;6164;42.178;24.622;2022-08-03T00:07:37;99456.41;;;23.26;61.06
12203;BME280;6164;42.178;24.622;2022-08-03T00:10:06;99454.56;;;23.27;60.94
12203;BME280;6164;42.178;24.622;2022-08-03T00:12:33;99453.19;;;23.03;61.86
12203;BME280;6164;42.178;24.622;2022-08-03T00:15:00;99454.38;;;22.90;62.87
12203;BME280;6164;42.178;24.622;2022-08-03T00:17:27;99451.28;;;22.82;62.66
12203;BME280;6164;42.178;24.622;2022-08-03T00:19:53;99455.38;;;22.63;63.89
12203;BME280;6164;42.178;24.622;2022-08-03T00:22:20;99451.13;;;22.67;64.06
12203;BME280;6164;42.178;24.622;2022-08-03T00:24:46;99454.34;;;22.69;63.31
12203;BME280;6164;42.178;24.622;2022-08-03T00:27:14;99456.25;;;22.68;63.39
12203;BME280;6164;42.178;24.622;2022-08-03T00:29:41;99450.31;;;22.66;62.26
12203;BME280;6164;42.178;24.622;2022-08-03T00:32:07;99458.81;;;22.58;62.12
12203;BME280;6164;42.178;24.622;2022-08-03T00:34:34;99451.78;;;22.57;62.21
12203;BME280;6164;42.178;24.622;2022-08-03T00:37:00;99453.19;;;22.60;62.13
12203;BME280;6164;42.178;24.622;2022-08-03T00:39:26;99446.78;;;22.28;63.20
12203;BME280;6164;42.178;24.622;2022-08-03T00:41:53;99443.84;;;22.12;63.98
12203;BME280;6164;42.178;24.622;2022-08-03T00:44:21;99446.25;;;21.92;65.36
12203;BME280;6164;42.178;24.622;2022-08-03T00:46:47;99446.94;;;21.71;65.41
12203;BME280;6164;42.178;24.622;2022-08-03T00:49:14;99453.13;;;21.72;65.42
12203;BME280;6164;42.178;24.622;2022-08-03T00:51:40;99454.84;;;21.78;64.94
12203;BME280;6164;42.178;24.622;2022-08-03T00:54:07;99453.81;;;21.79;64.42
12203;BME280;6164;42.178;24.622;2022-08-03T00:56:33;99460.47;;;21.76;63.72
12203;BME280;6164;42.178;24.622;2022-08-03T00:59:01;99453.81;;;21.79;63.20
12203;BME280;6164;42.178;24.622;2022-08-03T01:01:29;99451.31;;;21.89;62.74
12203;BME280;6164;42.178;24.622;2022-08-03T01:03:56;99457.16;;;22.02;62.01
12203;BME280;6164;42.178;24.622;2022-08-03T01:06:24;99449.47;;;22.11;61.86
12203;BME280;6164;42.178;24.622;2022-08-03T01:08:58;99455.25;;;22.19;60.91
12203;BME280;6164;42.178;24.622;2022-08-03T01:11:29;99453.16;;;22.22;61.08
12203;BME280;6164;42.178;24.622;2022-08-03T01:14:01;99449.63;;;22.21;60.83
12203;BME280;6164;42.178;24.622;2022-08-03T01:16:31;99452.81;;;22.18;60.80
12203;BME280;6164;42.178;24.622;2022-08-03T01:19:00;99454.84;;;22.11;60.20
12203;BME280;6164;42.178;24.622;2022-08-03T01:21:30;99453.81;;;22.12;60.54
12203;BME280;6164;42.178;24.622;2022-08-03T01:24:01;99458.03;;;22.08;59.59
12203;BME280;6164;42.178;24.622;2022-08-03T01:29:16;99454.50;;;22.24;60.32
12203;BME280;6164;42.178;24.622;2022-08-03T01:31:50;99453.53;;;22.30;59.57
12203;BME280;6164;42.178;24.622;2022-08-03T01:34:18;99457.84;;;22.31;59.80
12203;BME280;6164;42.178;24.622;2022-08-03T01:36:47;99452.88;;;22.40;60.39
12203;BME280;6164;42.178;24.622;2022-08-03T01:39:15;99461.25;;;22.43;60.39
12203;BME280;6164;42.178;24.622;2022-08-03T01:41:43;99452.13;;;22.44;61.42
12203;BME280;6164;42.178;24.622;2022-08-03T01:44:13;99453.94;;;22.39;60.61
12203;BME280;6164;42.178;24.622;2022-08-03T01:46:40;99456.06;;;22.37;60.68
12203;BME280;6164;42.178;24.622;2022-08-03T01:49:09;99457.09;;;22.36;61.45
12203;BME280;6164;42.178;24.622;2022-08-03T01:51:37;99457.59;;;22.33;61.43
12203;BME280;6164;42.178;24.622;2022-08-03T01:54:04;99447.91;;;22.32;60.89
12203;BME280;6164;42.178;24.622;2022-08-03T01:56:33;99458.41;;;22.33;62.04
12203;BME280;6164;42.178;24.622;2022-08-03T01:59:02;99451.66;;;22.31;61.43
12203;BME280;6164;42.178;24.622;2022-08-03T02:01:29;99451.59;;;22.26;62.41
12203;BME280;6164;42.178;24.622;2022-08-03T02:03:56;99450.81;;;22.08;62.61
12203;BME280;6164;42.178;24.622;2022-08-03T02:06:25;99449.66;;;22.04;62.17
12203;BME280;6164;42.178;24.622;2022-08-03T02:08:52;99457.72;;;22.04;62.19
12203;BME280;6164;42.178;24.622;2022-08-03T02:11:19;99453.31;;;21.98;62.13
12203;BME280;6164;42.178;24.622;2022-08-03T02:13:46;99463.16;;;21.93;62.44
12203;BME280;6164;42.178;24.622;2022-08-03T02:16:13;99464.25;;;21.92;62.63
12203;BME280;6164;42.178;24.622;2022-08-03T02:18:40;99462.84;;;21.89;62.40
12203;BME280;6164;42.178;24.622;2022-08-03T02:21:08;99465.53;;;21.89;62.83
12203;BME280;6164;42.178;24.622;2022-08-03T02:23:37;99459.94;;;21.91;62.99
12203;BME280;6164;42.178;24.622;2022-08-03T02:26:04;99453.66;;;21.85;63.26
12203;BME280;6164;42.178;24.622;2022-08-03T02:28:33;99456.50;;;21.79;63.73
12203;BME280;6164;42.178;24.622;2022-08-03T02:31:01;99457.09;;;21.81;63.64
12203;BME280;6164;42.178;24.622;2022-08-03T02:33:31;99458.50;;;21.72;63.42
12203;BME280;6164;42.178;24.622;2022-08-03T02:35:58;99461.44;;;21.70;63.64
12203;BME280;6164;42.178;24.622;2022-08-03T02:38:27;99468.22;;;21.73;64.29
12203;BME280;6164;42.178;24.622;2022-08-03T02:40:55;99467.72;;;21.76;65.42
12203;BME280;6164;42.178;24.622;2022-08-03T02:43:23;99464.00;;;21.77;64.93
12203;BME280;6164;42.178;24.622;2022-08-03T02:45:50;99466.56;;;21.72;63.82
12203;BME280;6164;42.178;24.622;2022-08-03T02:48:19;99467.78;;;21.64;64.29
12203;BME280;6164;42.178;24.622;2022-08-03T02:50:48;99472.50;;;21.57;64.70
12203;BME280;6164;42.178;24.622;2022-08-03T02:53:15;99468.25;;;21.45;64.94
12203;BME280;6164;42.178;24.622;2022-08-03T02:55:42;99473.56;;;21.28;66.23
12203;BME280;6164;42.178;24.622;2022-08-03T02:58:11;99467.78;;;21.20;66.25
12203;BME280;6164;42.178;24.622;2022-08-03T03:00:38;99470.78;;;21.23;66.67
12203;BME280;6164;42.178;24.622;2022-08-03T03:03:05;99477.78;;;21.24;66.81
12203;BME280;6164;42.178;24.622;2022-08-03T03:05:32;99483.38;;;21.23;66.96
12203;BME280;6164;42.178;24.622;2022-08-03T03:08:00;99487.72;;;21.12;67.45
12203;BME280;6164;42.178;24.622;2022-08-03T03:10:27;99479.03;;;21.05;67.52
12203;BME280;6164;42.178;24.622;2022-08-03T03:12:55;99488.69;;;21.06;67.91
12203;BME280;6164;42.178;24.622;2022-08-03T03:15:24;99478.44;;;21.03;68.38
12203;BME280;6164;42.178;24.622;2022-08-03T03:17:51;99470.63;;;21.02;68.16
12203;BME280;6164;42.178;24.622;2022-08-03T03:20:18;99477.97;;;20.94;68.10
12203;BME280;6164;42.178;24.622;2022-08-03T03:22:45;99479.47;;;20.90;68.19
12203;BME280;6164;42.178;24.622;2022-08-03T03:25:12;99483.84;;;20.80;68.60
12203;BME280;6164;42.178;24.622;2022-08-03T03:27:38;99479.09;;;20.59;69.72
12203;BME280;6164;42.178;24.622;2022-08-03T03:30:06;99481.44;;;20.55;69.94
12203;BME280;6164;42.178;24.622;2022-08-03T03:32:34;99482.81;;;20.46;70.33
12203;BME280;6164;42.178;24.622;2022-08-03T03:35:01;99487.03;;;20.42;69.65
12203;BME280;6164;42.178;24.622;2022-08-03T03:37:28;99494.38;;;20.47;69.50
12203;BME280;6164;42.178;24.622;2022-08-03T03:39:54;99499.38;;;20.43;69.17
12203;BME280;6164;42.178;24.622;2022-08-03T03:42:21;99509.16;;;20.38;68.64
12203;BME280;6164;42.178;24.622;2022-08-03T03:44:48;99510.13;;;20.32;68.70
12203;BME280;6164;42.178;24.622;2022-08-03T03:47:14;99510.59;;;20.29;69.38
12203;BME280;6164;42.178;24.622;2022-08-03T03:49:42;99515.00;;;20.35;69.95
12203;BME280;6164;42.178;24.622;2022-08-03T03:52:09;99519.44;;;20.29;70.23
12203;BME280;6164;42.178;24.622;2022-08-03T03:54:39;99522.50;;;20.33;70.43
12203;BME280;6164;42.178;24.622;2022-08-03T03:57:06;99525.84;;;20.28;70.77
12203;BME280;6164;42.178;24.622;2022-08-03T03:59:32;99527.84;;;20.21;71.39
12203;BME280;6164;42.178;24.622;2022-08-03T04:02:02;99523.59;;;20.14;71.82
12203;BME280;6164;42.178;24.622;2022-08-03T04:04:30;99531.84;;;20.01;72.63
12203;BME280;6164;42.178;24.622;2022-08-03T04:07:15;99531.72;;;19.96;73.40
12203;BME280;6164;42.178;24.622;2022-08-03T04:09:59;99519.84;;;20.03;73.18
12203;BME280;6164;42.178;24.622;2022-08-03T04:12:44;99519.16;;;20.08;72.90
12203;BME280;6164;42.178;24.622;2022-08-03T04:15:12;99522.75;;;20.02;72.74
12203;BME280;6164;42.178;24.622;2022-08-03T04:17:39;99523.91;;;19.94;72.65
12203;BME280;6164;42.178;24.622;2022-08-03T04:20:07;99526.00;;;19.92;73.09
12203;BME280;6164;42.178;24.622;2022-08-03T04:22:36;99534.63;;;19.94;73.73
12203;BME280;6164;42.178;24.622;2022-08-03T04:25:06;99533.94;;;20.10;73.17
12203;BME280;6164;42.178;24.622;2022-08-03T04:27:36;99541.00;;;20.23;72.43
12203;BME280;6164;42.178;24.622;2022-08-03T04:30:04;99546.94;;;20.25;72.58
12203;BME280;6164;42.178;24.622;2022-08-03T04:32:30;99546.25;;;20.29;72.67
12203;BME280;6164;42.178;24.622;2022-08-03T04:34:57;99546.38;;;20.34;72.35
12203;BME280;6164;42.178;24.622;2022-08-03T04:37:25;99544.38;;;20.53;72.04
12203;BME280;6164;42.178;24.622;2022-08-03T04:39:57;99546.03;;;20.65;71.12
12203;BME280;6164;42.178;24.622;2022-08-03T04:42:26;99544.63;;;20.63;71.08
12203;BME280;6164;42.178;24.622;2022-08-03T04:44:53;99548.72;;;20.77;70.07
12203;BME280;6164;42.178;24.622;2022-08-03T04:47:21;99542.97;;;20.85;70.30
12203;BME280;6164;42.178;24.622;2022-08-03T04:49:48;99546.91;;;20.94;70.24
12203;BME280;6164;42.178;24.622;2022-08-03T04:52:14;99542.75;;;20.98;70.36
12203;BME280;6164;42.178;24.622;2022-08-03T04:54:41;99566.78;;;21.05;69.90
12203;BME280;6164;42.178;24.622;2022-08-03T04:57:09;99570.50;;;21.15;68.17
12203;BME280;6164;42.178;24.622;2022-08-03T04:59:36;99568.47;;;21.22;67.70
12203;BME280;6164;42.178;24.622;2022-08-03T05:02:02;99563.09;;;21.34;67.23
12203;BME280;6164;42.178;24.622;2022-08-03T05:04:29;99561.41;;;21.44;67.03
12203;BME280;6164;42.178;24.622;2022-08-03T05:06:55;99553.56;;;21.54;66.40
12203;BME280;6164;42.178;24.622;2022-08-03T05:09:22;99555.88;;;21.62;65.96
12203;BME280;6164;42.178;24.622;2022-08-03T05:11:48;99555.72;;;21.69;66.36
12203;BME280;6164;42.178;24.622;2022-08-03T05:14:16;99563.19;;;21.67;65.89
12203;BME280;6164;42.178;24.622;2022-08-03T05:16:43;99563.81;;;21.57;66.40
12203;BME280;6164;42.178;24.622;2022-08-03T05:19:09;99568.00;;;21.65;65.79
12203;BME280;6164;42.178;24.622;2022-08-03T05:21:36;99567.75;;;21.66;65.74
12203;BME280;6164;42.178;24.622;2022-08-03T05:24:03;99572.91;;;21.68;64.87
12203;BME280;6164;42.178;24.622;2022-08-03T05:26:29;99575.84;;;21.55;65.60
12203;BME280;6164;42.178;24.622;2022-08-03T05:28:56;99575.00;;;21.66;66.10
12203;BME280;6164;42.178;24.622;2022-08-03T05:31:23;99576.13;;;21.70;65.28
12203;BME280;6164;42.178;24.622;2022-08-03T05:33:50;99573.91;;;21.78;64.47
12203;BME280;6164;42.178;24.622;2022-08-03T05:36:17;99571.50;;;21.93;64.04
12203;BME280;6164;42.178;24.622;2022-08-03T05:38:43;99576.59;;;22.06;62.94
12203;BME280;6164;42.178;24.622;2022-08-03T05:41:10;99575.69;;;22.17;61.96
12203;BME280;6164;42.178;24.622;2022-08-03T05:43:36;99579.88;;;22.25;61.50
12203;BME280;6164;42.178;24.622;2022-08-03T05:46:02;99588.53;;;22.44;60.46
12203;BME280;6164;42.178;24.622;2022-08-03T05:48:30;99595.97;;;22.53;59.66
12203;BME280;6164;42.178;24.622;2022-08-03T05:50:57;99599.13;;;22.50;59.32
12203;BME280;6164;42.178;24.622;2022-08-03T05:53:23;99597.25;;;22.67;59.85
12203;BME280;6164;42.178;24.622;2022-08-03T05:55:50;99601.16;;;22.76;58.54
12203;BME280;6164;42.178;24.622;2022-08-03T05:58:17;99594.59;;;22.89;57.74
12203;BME280;6164;42.178;24.622;2022-08-03T06:00:43;99593.13;;;22.98;58.16
12203;BME280;6164;42.178;24.622;2022-08-03T06:03:09;99586.88;;;23.14;57.40
12203;BME280;6164;42.178;24.622;2022-08-03T06:05:37;99589.44;;;23.25;56.80
12203;BME280;6164;42.178;24.622;2022-08-03T06:08:04;99587.25;;;23.39;55.70
12203;BME280;6164;42.178;24.622;2022-08-03T06:10:30;99598.69;;;23.51;55.13
12203;BME280;6164;42.178;24.622;2022-08-03T06:12:57;99599.69;;;23.67;54.56
12203;BME280;6164;42.178;24.622;2022-08-03T06:15:24;99597.94;;;23.82;54.07
12203;BME280;6164;42.178;24.622;2022-08-03T06:17:50;99601.78;;;23.86;53.69
12203;BME280;6164;42.178;24.622;2022-08-03T06:20:17;99598.72;;;23.99;53.64
12203;BME280;6164;42.178;24.622;2022-08-03T06:22:45;99610.72;;;24.13;53.91
12203;BME280;6164;42.178;24.622;2022-08-03T06:25:12;99608.09;;;24.23;52.40
12203;BME280;6164;42.178;24.622;2022-08-03T06:27:38;99606.81;;;24.31;52.35
12203;BME280;6164;42.178;24.622;2022-08-03T06:30:05;99606.13;;;24.45;52.18
12203;BME280;6164;42.178;24.622;2022-08-03T06:32:32;99614.06;;;24.57;52.48
12203;BME280;6164;42.178;24.622;2022-08-03T06:34:59;99605.28;;;24.72;52.34
12203;BME280;6164;42.178;24.622;2022-08-03T06:37:25;99608.88;;;24.82;52.69
12203;BME280;6164;42.178;24.622;2022-08-03T06:39:54;99609.25;;;24.96;51.53
12203;BME280;6164;42.178;24.622;2022-08-03T06:42:20;99614.72;;;25.11;50.50
12203;BME280;6164;42.178;24.622;2022-08-03T06:44:47;99617.19;;;25.17;50.07
12203;BME280;6164;42.178;24.622;2022-08-03T06:47:13;99611.28;;;25.20;49.31
12203;BME280;6164;42.178;24.622;2022-08-03T06:49:40;99605.63;;;25.27;49.50
12203;BME280;6164;42.178;24.622;2022-08-03T06:52:06;99607.00;;;25.34;48.76
12203;BME280;6164;42.178;24.622;2022-08-03T06:54:33;99606.81;;;25.46;49.92
12203;BME280;6164;42.178;24.622;2022-08-03T06:57:02;99613.31;;;25.50;48.96
12203;BME280;6164;42.178;24.622;2022-08-03T06:59:28;99603.09;;;25.62;48.71
12203;BME280;6164;42.178;24.622;2022-08-03T07:01:55;99607.50;;;25.83;48.85
12203;BME280;6164;42.178;24.622;2022-08-03T07:04:21;99601.06;;;26.04;48.08
12203;BME280;6164;42.178;24.622;2022-08-03T07:06:48;99599.72;;;26.22;47.87
12203;BME280;6164;42.178;24.622;2022-08-03T07:09:14;99594.88;;;26.44;48.23
12203;BME280;6164;42.178;24.622;2022-08-03T07:11:41;99600.00;;;26.55;47.43
12203;BME280;6164;42.178;24.622;2022-08-03T07:14:08;99614.91;;;26.68;45.96
12203;BME280;6164;42.178;24.622;2022-08-03T07:16:35;99607.31;;;26.80;46.28
12203;BME280;6164;42.178;24.622;2022-08-03T07:19:01;99607.31;;;26.95;47.86
12203;BME280;6164;42.178;24.622;2022-08-03T07:21:28;99610.78;;;27.05;47.98
12203;BME280;6164;42.178;24.622;2022-08-03T07:23:54;99602.63;;;27.15;49.09
12203;BME280;6164;42.178;24.622;2022-08-03T07:26:21;99608.31;;;27.34;48.11
12203;BME280;6164;42.178;24.622;2022-08-03T07:28:47;99614.47;;;27.45;47.74
12203;BME280;6164;42.178;24.622;2022-08-03T07:31:15;99612.53;;;27.55;46.84
12203;BME280;6164;42.178;24.622;2022-08-03T07:33:42;99617.09;;;27.65;45.92
12203;BME280;6164;42.178;24.622;2022-08-03T07:36:08;99623.06;;;27.67;46.08
12203;BME280;6164;42.178;24.622;2022-08-03T07:38:35;99633.91;;;27.67;44.20
12203;BME280;6164;42.178;24.622;2022-08-03T07:41:01;99629.81;;;27.74;44.65
12203;BME280;6164;42.178;24.622;2022-08-03T07:43:28;99630.03;;;27.83;45.54
12203;BME280;6164;42.178;24.622;2022-08-03T07:45:54;99631.13;;;27.82;45.60
12203;BME280;6164;42.178;24.622;2022-08-03T07:48:22;99636.31;;;27.78;45.58
12203;BME280;6164;42.178;24.622;2022-08-03T07:50:49;99628.41;;;27.92;46.72
12203;BME280;6164;42.178;24.622;2022-08-03T07:53:16;99636.50;;;27.97;45.27
12203;BME280;6164;42.178;24.622;2022-08-03T07:55:42;99631.31;;;28.05;47.47
12203;BME280;6164;42.178;24.622;2022-08-03T07:58:09;99639.09;;;28.17;45.38
12203;BME280;6164;42.178;24.622;2022-08-03T08:00:40;99636.88;;;28.24;45.62
12203;BME280;6164;42.178;24.622;2022-08-03T08:03:06;99620.53;;;28.29;45.36
12203;BME280;6164;42.178;24.622;2022-08-03T08:05:35;99632.00;;;28.21;45.50
12203;BME280;6164;42.178;24.622;2022-08-03T08:08:02;99628.19;;;28.27;46.13
12203;BME280;6164;42.178;24.622;2022-08-03T08:10:29;99624.91;;;28.30;45.31
12203;BME280;6164;42.178;24.622;2022-08-03T08:12:56;99628.69;;;28.29;44.79
12203;BME280;6164;42.178;24.622;2022-08-03T08:15:23;99633.03;;;28.30;45.54
12203;BME280;6164;42.178;24.622;2022-08-03T08:17:50;99629.25;;;28.26;45.55
12203;BME280;6164;42.178;24.622;2022-08-03T08:20:18;99626.53;;;28.26;45.17
12203;BME280;6164;42.178;24.622;2022-08-03T08:22:47;99625.19;;;28.28;45.76
12203;BME280;6164;42.178;24.622;2022-08-03T08:25:13;99629.19;;;28.36;46.03
12203;BME280;6164;42.178;24.622;2022-08-03T08:27:40;99622.31;;;28.43;45.99
12203;BME280;6164;42.178;24.622;2022-08-03T08:30:07;99632.41;;;28.43;45.70
12203;BME280;6164;42.178;24.622;2022-08-03T08:32:34;99630.13;;;28.55;46.93
12203;BME280;6164;42.178;24.622;2022-08-03T08:35:01;99635.31;;;28.57;45.06
12203;BME280;6164;42.178;24.622;2022-08-03T08:37:27;99626.31;;;28.61;45.83
12203;BME280;6164;42.178;24.622;2022-08-03T08:39:55;99623.53;;;28.66;46.98
12203;BME280;6164;42.178;24.622;2022-08-03T08:42:22;99628.94;;;28.71;45.63
12203;BME280;6164;42.178;24.622;2022-08-03T08:44:49;99632.63;;;28.80;45.32
12203;BME280;6164;42.178;24.622;2022-08-03T08:47:16;99637.97;;;28.90;44.30
12203;BME280;6164;42.178;24.622;2022-08-03T08:49:44;99626.44;;;29.03;45.88
12203;BME280;6164;42.178;24.622;2022-08-03T08:52:12;99633.69;;;29.13;43.85
12203;BME280;6164;42.178;24.622;2022-08-03T08:54:39;99630.06;;;29.22;43.67
12203;BME280;6164;42.178;24.622;2022-08-03T08:57:08;99629.44;;;29.30;44.22
12203;BME280;6164;42.178;24.622;2022-08-03T08:59:35;99633.66;;;29.41;42.53
12203;BME280;6164;42.178;24.622;2022-08-03T09:02:02;99636.94;;;29.62;43.14
12203;BME280;6164;42.178;24.622;2022-08-03T09:04:28;99642.50;;;29.76;41.94
12203;BME280;6164;42.178;24.622;2022-08-03T09:06:55;99628.84;;;29.99;42.74
12203;BME280;6164;42.178;24.622;2022-08-03T09:09:22;99635.84;;;30.24;42.02
12203;BME280;6164;42.178;24.622;2022-08-03T09:11:48;99641.97;;;30.34;40.96
12203;BME280;6164;42.178;24.622;2022-08-03T09:14:16;99640.84;;;30.54;40.94
12203;BME280;6164;42.178;24.622;2022-08-03T09:16:54;99633.63;;;30.76;41.13
12203;BME280;6164;42.178;24.622;2022-08-03T09:19:20;99635.59;;;30.89;40.07
12203;BME280;6164;42.178;24.622;2022-08-03T09:21:48;99635.72;;;30.98;39.99
12203;BME280;6164;42.178;24.622;2022-08-03T09:24:32;99616.97;;;31.10;40.90
12203;BME280;6164;42.178;24.622;2022-08-03T09:26:58;99634.03;;;31.16;38.66
12203;BME280;6164;42.178;24.622;2022-08-03T09:29:26;99632.13;;;31.30;39.25
12203;BME280;6164;42.178;24.622;2022-08-03T09:31:59;99631.91;;;31.13;38.65
12203;BME280;6164;42.178;24.622;2022-08-03T09:34:25;99616.06;;;31.28;39.58
12203;BME280;6164;42.178;24.622;2022-08-03T09:36:52;99615.19;;;31.46;39.74
12203;BME280;6164;42.178;24.622;2022-08-03T09:39:20;99621.41;;;31.60;39.22
12203;BME280;6164;42.178;24.622;2022-08-03T09:41:48;99627.28;;;31.67;38.62
12203;BME280;6164;42.178;24.622;2022-08-03T09:44:23;99608.38;;;31.71;39.30
12203;BME280;6164;42.178;24.622;2022-08-03T09:47:00;99628.88;;;31.68;38.29
12203;BME280;6164;42.178;24.622;2022-08-03T09:49:27;99627.69;;;31.74;37.84
12203;BME280;6164;42.178;24.622;2022-08-03T09:51:53;99617.56;;;31.75;38.52
12203;BME280;6164;42.178;24.622;2022-08-03T09:54:30;99595.94;;;31.65;40.13
12203;BME280;6164;42.178;24.622;2022-08-03T09:56:56;99613.03;;;31.57;38.55
12203;BME280;6164;42.178;24.622;2022-08-03T09:59:24;99619.09;;;31.67;37.62
12203;BME280;6164;42.178;24.622;2022-08-03T10:01:51;99621.22;;;31.70;37.48
12203;BME280;6164;42.178;24.622;2022-08-03T10:04:19;99618.88;;;31.64;38.17
12203;BME280;6164;42.178;24.622;2022-08-03T10:07:00;99611.31;;;31.61;38.02
12203;BME280;6164;42.178;24.622;2022-08-03T10:09:27;99611.72;;;31.54;37.57
12203;BME280;6164;42.178;24.622;2022-08-03T10:11:53;99593.19;;;31.65;39.01
12203;BME280;6164;42.178;24.622;2022-08-03T10:14:20;99619.81;;;31.59;36.63
12203;BME280;6164;42.178;24.622;2022-08-03T10:16:47;99630.13;;;31.35;36.51
12203;BME280;6164;42.178;24.622;2022-08-03T10:19:14;99600.63;;;31.37;37.79
12203;BME280;6164;42.178;24.622;2022-08-03T10:21:45;99604.69;;;31.40;37.10
12203;BME280;6164;42.178;24.622;2022-08-03T10:24:12;99597.06;;;31.64;37.89
12203;BME280;6164;42.178;24.622;2022-08-03T10:26:40;99610.47;;;31.74;36.42
12203;BME280;6164;42.178;24.622;2022-08-03T10:29:10;99609.25;;;31.93;36.79
12203;BME280;6164;42.178;24.622;2022-08-03T10:31:38;99627.13;;;31.99;35.61
12203;BME280;6164;42.178;24.622;2022-08-03T10:34:05;99625.84;;;31.97;35.31
12203;BME280;6164;42.178;24.622;2022-08-03T10:36:34;99614.81;;;32.02;35.83
12203;BME280;6164;42.178;24.622;2022-08-03T10:39:04;99630.13;;;31.89;35.28
12203;BME280;6164;42.178;24.622;2022-08-03T10:41:31;99618.06;;;31.63;35.67
12203;BME280;6164;42.178;24.622;2022-08-03T10:43:58;99619.09;;;31.54;35.82
12203;BME280;6164;42.178;24.622;2022-08-03T10:46:28;99622.44;;;31.64;36.01
12203;BME280;6164;42.178;24.622;2022-08-03T10:48:54;99603.41;;;31.86;35.64
12203;BME280;6164;42.178;24.622;2022-08-03T10:51:21;99608.63;;;31.96;35.46
12203;BME280;6164;42.178;24.622;2022-08-03T10:53:48;99595.09;;;32.27;36.03
12203;BME280;6164;42.178;24.622;2022-08-03T10:59:19;99588.03;;;32.48;35.59
12203;BME280;6164;42.178;24.622;2022-08-03T11:02:05;99574.69;;;32.47;36.57
12203;BME280;6164;42.178;24.622;2022-08-03T11:04:34;99578.31;;;32.64;35.55
12203;BME280;6164;42.178;24.622;2022-08-03T11:09:42;99606.53;;;33.04;33.27
12203;BME280;6164;42.178;24.622;2022-08-03T11:12:19;99634.06;;;32.77;33.33
12203;BME280;6164;42.178;24.622;2022-08-03T11:14:48;99613.91;;;32.73;33.58
12203;BME280;6164;42.178;24.622;2022-08-03T11:17:14;99590.44;;;32.80;34.89
12203;BME280;6164;42.178;24.622;2022-08-03T11:19:42;99589.66;;;32.80;34.69
12203;BME280;6164;42.178;24.622;2022-08-03T11:22:09;99589.16;;;32.78;33.86
12203;BME280;6164;42.178;24.622;2022-08-03T11:27:22;99599.28;;;32.77;33.15
12203;BME280;6164;42.178;24.622;2022-08-03T11:29:54;99601.00;;;32.65;33.24
12203;BME280;6164;42.178;24.622;2022-08-03T11:35:07;99584.81;;;32.77;33.82
12203;BME280;6164;42.178;24.622;2022-08-03T11:37:34;99590.94;;;32.82;32.83
12203;BME280;6164;42.178;24.622;2022-08-03T11:40:01;99606.91;;;32.89;32.17
12203;BME280;6164;42.178;24.622;2022-08-03T11:42:41;99574.81;;;32.94;33.42
12203;BME280;6164;42.178;24.622;2022-08-03T11:45:13;99603.25;;;32.93;32.64
12203;BME280;6164;42.178;24.622;2022-08-03T11:47:40;99597.19;;;33.05;32.10
12203;BME280;6164;42.178;24.622;2022-08-03T11:50:08;99591.25;;;33.03;32.36
12203;BME280;6164;42.178;24.622;2022-08-03T11:52:37;99588.41;;;32.86;32.75
12203;BME280;6164;42.178;24.622;2022-08-03T11:55:07;99573.50;;;32.92;33.00
12203;BME280;6164;42.178;24.622;2022-08-03T11:57:34;99575.16;;;33.01;32.90
12203;BME280;6164;42.178;24.622;2022-08-03T12:00:02;99539.28;;;33.11;33.80
12203;BME280;6164;42.178;24.622;2022-08-03T12:02:53;99562.19;;;33.24;32.81
12203;BME280;6164;42.178;24.622;2022-08-03T12:05:20;99579.78;;;33.40;31.90
12203;BME280;6164;42.178;24.622;2022-08-03T12:07:47;99559.72;;;33.53;33.19
12203;BME280;6164;42.178;24.622;2022-08-03T12:10:13;99535.06;;;33.53;34.58
12203;BME280;6164;42.178;24.622;2022-08-03T12:12:40;99589.72;;;33.27;31.65
12203;BME280;6164;42.178;24.622;2022-08-03T12:15:07;99554.66;;;33.29;33.28
12203;BME280;6164;42.178;24.622;2022-08-03T12:17:34;99578.50;;;32.98;32.43
12203;BME280;6164;42.178;24.622;2022-08-03T12:20:02;99586.44;;;32.78;31.73
12203;BME280;6164;42.178;24.622;2022-08-03T12:22:30;99529.06;;;32.86;35.05
12203;BME280;6164;42.178;24.622;2022-08-03T12:24:57;99582.44;;;32.84;31.29
12203;BME280;6164;42.178;24.622;2022-08-03T12:27:23;99594.19;;;32.84;31.73
12203;BME280;6164;42.178;24.622;2022-08-03T12:29:52;99572.09;;;33.03;32.83
12203;BME280;6164;42.178;24.622;2022-08-03T12:32:19;99614.06;;;32.98;30.59
12203;BME280;6164;42.178;24.622;2022-08-03T12:34:46;99626.44;;;32.96;30.62
12203;BME280;6164;42.178;24.622;2022-08-03T12:37:16;99602.06;;;32.86;32.13
12203;BME280;6164;42.178;24.622;2022-08-03T12:39:43;99544.22;;;32.92;33.26
12203;BME280;6164;42.178;24.622;2022-08-03T12:42:14;99558.66;;;33.23;31.13
12203;BME280;6164;42.178;24.622;2022-08-03T12:44:41;99529.63;;;33.62;33.71
12203;BME280;6164;42.178;24.622;2022-08-03T12:47:07;99516.91;;;34.08;33.26
12203;BME280;6164;42.178;24.622;2022-08-03T12:49:43;99535.09;;;34.30;32.22
12203;BME280;6164;42.178;24.622;2022-08-03T12:52:10;99528.50;;;33.54;33.77
12203;BME280;6164;42.178;24.622;2022-08-03T12:54:38;99507.91;;;33.09;33.92
12203;BME280;6164;42.178;24.622;2022-08-03T12:57:04;99494.22;;;33.00;34.32
12203;BME280;6164;42.178;24.622;2022-08-03T12:59:32;99502.25;;;32.66;34.29
12203;BME280;6164;42.178;24.622;2022-08-03T13:01:59;99493.97;;;32.49;34.27
12203;BME280;6164;42.178;24.622;2022-08-03T13:04:26;99482.41;;;32.44;34.84
12203;BME280;6164;42.178;24.622;2022-08-03T13:06:56;99459.22;;;32.41;35.32
12203;BME280;6164;42.178;24.622;2022-08-03T13:09:22;99449.75;;;32.17;35.30
12203;BME280;6164;42.178;24.622;2022-08-03T13:12:04;99447.53;;;31.74;36.40
12203;BME280;6164;42.178;24.622;2022-08-03T13:14:31;99437.28;;;31.58;36.28
12203;BME280;6164;42.178;24.622;2022-08-03T13:16:58;99428.22;;;31.35;36.58